createdAt,value
2023-01-20T05:33:05.478Z,2.87
2023-01-20T05:37:08.617Z,2.87
2023-01-20T05:41:11.586Z,2.43
2023-01-20T05:45:14.884Z,2.53
2023-01-20T05:49:17.741Z,2.70
2023-01-20T05:53:20.907Z,2.87
2023-01-20T05:57:26.712Z,2.56
2023-01-20T06:01:29.735Z,2.52
2023-01-20T06:05:32.866Z,2.53
2023-01-20T06:09:35.842Z,2.62
2023-01-20T06:13:41.209Z,2.46
2023-01-20T06:17:46.684Z,2.56
2023-01-20T06:21:49.754Z,2.39
2023-01-20T06:26:06.879Z,2.61
2023-01-20T06:30:11.021Z,2.70
2023-01-20T06:34:14.017Z,2.76
2023-01-20T06:38:18.058Z,2.50
2023-01-20T06:42:31.797Z,2.51
2023-01-20T06:46:58.745Z,2.58
2023-01-20T06:51:03.376Z,2.59
2023-01-20T06:55:07.668Z,2.57
2023-01-20T06:59:13.417Z,2.44
2023-01-20T07:03:17.875Z,2.56
2023-01-20T07:07:21.351Z,2.59
2023-01-20T07:11:25.334Z,2.56
2023-01-20T07:15:28.218Z,2.60
2023-01-20T07:19:34.475Z,2.44
2023-01-20T07:23:39.896Z,2.59
2023-01-20T07:27:59.476Z,2.54
2023-01-20T07:32:02.503Z,2.68
2023-01-20T07:36:07.585Z,2.77
2023-01-20T07:40:15.656Z,2.62
2023-01-20T07:44:25.310Z,2.64
2023-01-20T07:48:32.033Z,2.71
2023-01-20T07:52:39.744Z,2.70
2023-01-20T07:56:42.775Z,2.80
2023-01-20T08:00:48.894Z,2.80
2023-01-20T08:04:52.244Z,2.81
2023-01-20T08:08:58.466Z,2.95
2023-01-20T08:13:02.283Z,2.90
2023-01-20T08:17:05.004Z,2.88
2023-01-20T08:21:16.419Z,3.16
2023-01-20T08:25:19.072Z,3.40
2023-01-20T08:29:22.715Z,3.11
2023-01-20T08:33:26.575Z,3.03
2023-01-20T08:37:29.553Z,3.13
2023-01-20T08:41:37.623Z,3.16
2023-01-20T08:46:03.196Z,3.06
2023-01-20T08:50:07.184Z,3.22
2023-01-20T08:54:10.674Z,3.30
2023-01-20T08:58:13.366Z,3.39
2023-01-20T09:02:22.166Z,3.36
2023-01-20T09:06:24.962Z,3.30
2023-01-20T09:10:38.515Z,3.43
2023-01-20T09:14:45.090Z,3.49
2023-01-20T09:18:51.656Z,3.39
2023-01-20T09:22:57.783Z,3.40
2023-01-20T09:27:05.185Z,3.42
2023-01-20T09:31:10.051Z,3.26
2023-01-20T09:35:16.120Z,3.30
2023-01-20T09:39:43.129Z,3.28
2023-01-20T09:43:55.508Z,3.27
2023-01-20T09:48:41.489Z,3.27
2023-01-20T09:53:02.951Z,3.35
2023-01-20T09:57:07.436Z,3.29
2023-01-20T10:01:18.893Z,3.30
2023-01-20T10:05:30.755Z,3.35
2023-01-20T10:10:03.104Z,3.20
2023-01-20T10:14:35.705Z,3.37
2023-01-20T10:18:48.419Z,3.43
2023-01-20T10:22:56.083Z,3.39
2023-01-20T10:27:04.963Z,3.37
2023-01-20T10:31:24.228Z,3.52
2023-01-20T10:35:28.855Z,3.35
2023-01-20T10:39:39.512Z,3.32
2023-01-20T10:43:43.067Z,3.50
2023-01-20T10:48:07.597Z,3.47
2023-01-20T10:52:13.485Z,3.47
2023-01-20T10:56:32.744Z,3.56
2023-01-20T11:00:39.893Z,3.54
2023-01-20T11:04:53.105Z,3.60
2023-01-20T11:08:56.985Z,3.51
2023-01-20T11:13:02.638Z,3.47
2023-01-20T11:17:07.304Z,3.40
2023-01-20T11:21:13.342Z,3.37
2023-01-20T11:25:27.392Z,3.23
2023-01-20T11:29:31.711Z,3.28
2023-01-20T11:33:34.559Z,3.37
2023-01-20T11:37:40.590Z,3.31
2023-01-20T11:41:43.734Z,3.22
2023-01-20T11:45:47.712Z,3.23
2023-01-20T11:50:09.357Z,3.34
2023-01-20T11:54:16.384Z,3.49
2023-01-20T11:58:25.802Z,4.22
2023-01-20T12:02:28.971Z,3.89
2023-01-20T12:07:00.117Z,3.21
2023-01-20T12:11:05.518Z,3.40
2023-01-20T12:15:25.728Z,3.22
2023-01-20T12:20:00.018Z,3.39
2023-01-20T12:24:42.429Z,2.98
2023-01-20T12:28:54.879Z,2.88
2023-01-20T12:32:58.702Z,2.90
2023-01-20T12:37:04.258Z,2.96
2023-01-20T12:41:13.837Z,2.78
2023-01-20T12:45:34.955Z,2.66
2023-01-20T12:49:48.732Z,2.68
2023-01-20T12:54:20.050Z,2.87
2023-01-20T12:58:36.013Z,3.06
2023-01-20T13:03:16.569Z,3.03
2023-01-20T13:07:30.269Z,3.06
2023-01-20T13:11:32.899Z,2.93
2023-01-20T13:15:42.030Z,3.09
2023-01-20T13:19:49.617Z,2.73
2023-01-20T13:23:52.903Z,2.65
2023-01-20T13:27:55.955Z,2.49
2023-01-20T13:31:59.108Z,2.43
2023-01-20T13:36:18.852Z,2.32
2023-01-20T13:40:37.091Z,2.23
2023-01-20T13:44:42.427Z,2.26
2023-01-20T13:49:24.517Z,2.21
2023-01-20T13:53:28.551Z,2.19
2023-01-20T13:57:43.833Z,2.18
2023-01-20T14:01:48.847Z,2.16
2023-01-20T14:06:03.371Z,2.12
2023-01-20T14:10:11.879Z,2.11
2023-01-20T14:14:19.374Z,2.07
2023-01-20T14:18:23.990Z,2.03
2023-01-20T14:22:30.026Z,1.94
2023-01-20T14:26:33.425Z,2.00
2023-01-20T14:30:36.629Z,1.86
2023-01-20T14:34:40.522Z,1.80
2023-01-20T14:38:56.439Z,1.83
2023-01-20T14:43:02.238Z,1.69
2023-01-20T14:47:05.400Z,1.60
2023-01-20T14:51:08.352Z,1.54
2023-01-20T14:55:31.886Z,1.40
2023-01-20T14:59:34.606Z,1.45
2023-01-20T15:03:37.665Z,1.17
2023-01-20T15:07:40.270Z,1.10
2023-01-20T15:11:43.385Z,1.08
2023-01-20T15:15:46.020Z,0.96
2023-01-20T15:19:49.041Z,0.91
2023-01-20T15:23:52.930Z,0.85
2023-01-20T15:27:57.289Z,0.87
2023-01-20T15:32:02.488Z,0.79
2023-01-20T15:36:37.192Z,0.81
2023-01-20T15:40:40.906Z,0.79
2023-01-20T15:44:43.880Z,0.86
2023-01-20T15:48:46.568Z,0.87
2023-01-20T15:52:49.744Z,0.83
2023-01-20T15:56:52.411Z,0.77
2023-01-20T16:00:56.702Z,0.79
2023-01-20T16:04:59.624Z,0.74
2023-01-20T16:09:11.105Z,0.74
2023-01-20T16:13:14.747Z,0.80
2023-01-20T16:17:21.159Z,0.65
2023-01-20T16:21:24.218Z,0.67
